createdAt,value
2018-06-02T00:01:42.494Z,97.50
2018-06-02T00:04:09.486Z,96.90
2018-06-02T00:06:36.667Z,96.90
2018-06-02T00:09:02.959Z,97.00
2018-06-02T00:11:30.047Z,96.70
2018-06-02T00:13:56.426Z,96.80
2018-06-02T00:16:23.555Z,97.20
2018-06-02T00:18:49.790Z,97.00
2018-06-02T00:21:16.010Z,96.90
2018-06-02T00:23:42.435Z,97.40
2018-06-02T00:26:09.578Z,97.20
2018-06-02T00:28:35.830Z,97.20
2018-06-02T00:31:02.171Z,96.80
2018-06-02T00:33:29.177Z,97.80
2018-06-02T00:35:55.410Z,97.80
2018-06-02T00:38:21.737Z,97.70
2018-06-02T00:40:48.358Z,97.90
2018-06-02T00:43:14.629Z,97.90
2018-06-02T00:45:40.837Z,97.80
2018-06-02T00:48:07.079Z,98.30
2018-06-02T00:50:33.297Z,97.70
2018-06-02T00:52:59.543Z,97.70
2018-06-02T00:55:25.765Z,98.20
2018-06-02T00:57:52.034Z,98.10
2018-06-02T01:00:18.270Z,98.30
2018-06-02T01:02:44.502Z,98.30
2018-06-02T01:05:11.481Z,98.20
2018-06-02T01:07:38.468Z,98.40
2018-06-02T01:10:04.697Z,98.40
2018-06-02T01:12:30.931Z,98.40
2018-06-02T01:14:57.538Z,98.40
2018-06-02T01:17:23.802Z,98.50
2018-06-02T01:19:50.030Z,98.50
2018-06-02T01:22:16.294Z,98.00
2018-06-02T01:24:42.546Z,98.20
2018-06-02T01:27:08.822Z,97.90
2018-06-02T01:29:36.166Z,97.70
2018-06-02T01:32:02.511Z,97.50
2018-06-02T01:34:28.742Z,97.90
2018-06-02T01:36:55.074Z,98.00
2018-06-02T01:39:21.309Z,98.40
2018-06-02T01:41:47.661Z,98.40
2018-06-02T01:44:13.894Z,97.80
2018-06-02T01:46:40.266Z,97.80
2018-06-02T01:49:06.510Z,97.80
2018-06-02T01:51:32.845Z,97.70
2018-06-02T01:53:59.194Z,97.50
2018-06-02T01:56:26.333Z,97.50
2018-06-02T01:58:52.594Z,97.50
2018-06-02T02:01:18.818Z,97.50
2018-06-02T02:03:45.097Z,97.30
2018-06-02T02:06:11.370Z,97.90
2018-06-02T02:08:38.907Z,98.10
2018-06-02T02:11:05.134Z,97.80
2018-06-02T02:13:31.400Z,97.80
2018-06-02T02:15:57.657Z,97.90
2018-06-02T02:18:23.890Z,97.70
2018-06-02T02:20:50.142Z,97.60
2018-06-02T02:23:17.114Z,97.70
2018-06-02T02:25:43.360Z,97.70
2018-06-02T02:28:09.601Z,97.60
2018-06-02T02:30:36.222Z,98.10
2018-06-02T02:33:02.697Z,97.90
2018-06-02T02:35:28.955Z,97.70
2018-06-02T02:37:55.709Z,97.70
2018-06-02T02:40:21.977Z,98.00
2018-06-02T02:42:48.445Z,98.10
2018-06-02T02:45:15.638Z,98.50
2018-06-02T02:47:43.285Z,98.50
2018-06-02T02:50:10.261Z,97.60
2018-06-02T02:52:36.503Z,97.70
2018-06-02T02:55:02.787Z,97.50
2018-06-02T02:57:29.018Z,97.90
2018-06-02T02:59:55.305Z,97.80
2018-06-02T03:02:21.590Z,98.10
2018-06-02T03:04:47.913Z,97.70
2018-06-02T03:07:14.185Z,97.90
2018-06-02T03:09:40.482Z,98.40
2018-06-02T03:12:07.449Z,98.30
2018-06-02T03:14:33.706Z,98.30
2018-06-02T03:17:00.023Z,98.30
2018-06-02T03:19:26.263Z,98.30
2018-06-02T03:21:52.652Z,98.70
2018-06-02T03:24:18.992Z,98.90
2018-06-02T03:26:45.962Z,98.40
2018-06-02T03:29:12.218Z,98.40
2018-06-02T03:31:38.698Z,98.50
2018-06-02T03:34:04.944Z,98.90
2018-06-02T03:36:31.201Z,98.60
2018-06-02T03:38:57.949Z,98.80
2018-06-02T03:41:24.268Z,98.80
2018-06-02T03:43:50.498Z,98.70
2018-06-02T03:46:16.914Z,98.70
2018-06-02T03:48:43.174Z,98.80
2018-06-02T03:51:10.450Z,98.90
2018-06-02T03:53:37.458Z,99.00
2018-06-02T03:56:03.721Z,99.10
2018-06-02T03:58:29.948Z,99.30
2018-06-02T04:00:56.222Z,99.40
2018-06-02T04:03:22.442Z,99.30
2018-06-02T04:05:48.703Z,99.50
2018-06-02T04:08:15.642Z,99.60
2018-06-02T04:10:41.893Z,99.60
2018-06-02T04:13:08.151Z,99.30
2018-06-02T04:15:34.402Z,99.00
2018-06-02T04:18:00.626Z,99.40
2018-06-02T04:20:26.891Z,99.50
2018-06-02T04:22:53.148Z,99.20
2018-06-02T04:25:19.423Z,98.90
2018-06-02T04:27:46.251Z,99.10
2018-06-02T04:30:12.605Z,99.00
2018-06-02T04:32:38.887Z,98.90
2018-06-02T04:35:05.165Z,99.20
2018-06-02T04:37:31.521Z,98.70
2018-06-02T04:39:57.753Z,98.90
2018-06-02T04:42:24.289Z,98.80
2018-06-02T04:44:50.534Z,98.90
2018-06-02T04:47:16.822Z,98.80
2018-06-02T04:49:43.057Z,98.60
2018-06-02T04:52:09.342Z,98.70
2018-06-02T04:54:35.561Z,98.30
2018-06-02T04:57:02.422Z,98.20
2018-06-02T04:59:28.674Z,98.20
2018-06-02T05:01:54.966Z,97.90
2018-06-02T05:04:22.426Z,98.00
2018-06-02T05:06:48.881Z,98.00
2018-06-02T05:09:15.127Z,97.60
2018-06-02T05:11:41.405Z,97.60
2018-06-02T05:14:07.651Z,97.60
2018-06-02T05:16:34.531Z,97.50
2018-06-02T05:19:00.766Z,97.70
2018-06-02T05:21:27.014Z,97.80
2018-06-02T05:23:53.236Z,97.20
2018-06-02T05:26:19.478Z,97.30
2018-06-02T05:28:45.701Z,97.30
2018-06-02T05:31:12.486Z,96.90
2018-06-02T05:33:38.698Z,96.90
2018-06-02T05:36:04.954Z,97.40
2018-06-02T05:38:31.173Z,96.90
2018-06-02T05:40:57.405Z,96.40
2018-06-02T05:43:23.621Z,96.40
2018-06-02T05:45:50.854Z,95.80
2018-06-02T05:48:17.530Z,95.80
2018-06-02T05:50:43.757Z,96.90
2018-06-02T05:53:09.993Z,96.30
2018-06-02T05:55:36.209Z,95.80
2018-06-02T05:58:02.496Z,94.90
2018-06-02T06:00:29.468Z,94.60
2018-06-02T06:02:55.750Z,94.60
2018-06-02T06:05:22.167Z,94.80
2018-06-02T06:07:48.413Z,95.30
2018-06-02T06:10:14.630Z,94.90
2018-06-02T06:12:40.899Z,94.80
2018-06-02T06:15:07.118Z,95.30
2018-06-02T06:17:35.995Z,95.50
2018-06-02T06:20:02.982Z,94.70
2018-06-02T06:22:29.969Z,94.70
2018-06-02T06:24:56.198Z,94.70
2018-06-02T06:27:22.442Z,94.10
2018-06-02T06:29:48.909Z,93.90
2018-06-02T06:32:16.038Z,94.50
2018-06-02T06:34:42.257Z,93.80
2018-06-02T06:37:08.498Z,93.60
2018-06-02T06:39:34.731Z,94.20
2018-06-02T06:42:00.980Z,94.20
2018-06-02T06:44:27.284Z,94.00
2018-06-02T06:46:53.465Z,94.20
2018-06-02T06:49:20.605Z,94.60
2018-06-02T06:51:47.597Z,94.50
2018-06-02T06:54:13.825Z,94.50
2018-06-02T06:56:40.074Z,94.50
2018-06-02T06:59:06.308Z,94.40
2018-06-02T07:01:32.735Z,93.50
2018-06-02T07:03:58.966Z,93.90
2018-06-02T07:06:25.193Z,94.10
2018-06-02T07:08:51.630Z,94.80
2018-06-02T07:11:17.848Z,92.40
2018-06-02T07:13:44.073Z,92.00
2018-06-02T07:16:10.653Z,92.50
2018-06-02T07:18:36.975Z,93.00
2018-06-02T07:21:03.243Z,93.30
2018-06-02T07:23:29.657Z,92.80
2018-06-02T07:25:55.897Z,93.40
2018-06-02T07:28:22.884Z,92.20
2018-06-02T07:30:49.132Z,92.20
2018-06-02T07:33:15.434Z,92.90
2018-06-02T07:35:41.659Z,93.40
2018-06-02T07:38:07.909Z,92.90
2018-06-02T07:40:34.213Z,91.50
2018-06-02T07:43:01.197Z,91.70
2018-06-02T07:45:27.437Z,91.70
2018-06-02T07:47:53.766Z,89.90
2018-06-02T07:50:19.980Z,89.60
2018-06-02T07:52:46.278Z,90.20
2018-06-02T07:55:13.229Z,88.90
2018-06-02T07:57:39.752Z,88.90
2018-06-02T08:00:05.930Z,89.40
2018-06-02T08:02:32.181Z,88.30
2018-06-02T08:04:58.706Z,90.10
2018-06-02T08:07:25.038Z,90.50
2018-06-02T08:09:51.273Z,88.10
2018-06-02T08:12:17.570Z,87.90
2018-06-02T08:14:43.846Z,88.20
2018-06-02T08:17:10.086Z,89.20
2018-06-02T08:19:36.330Z,88.00
2018-06-02T08:22:02.637Z,87.60
2018-06-02T08:24:29.126Z,88.10
2018-06-02T08:26:56.085Z,90.00
2018-06-02T08:29:22.582Z,89.90
2018-06-02T08:31:48.834Z,86.10
2018-06-02T08:34:15.806Z,87.50
2018-06-02T08:36:42.032Z,87.30
2018-06-02T08:39:08.273Z,87.40
2018-06-02T08:41:34.854Z,86.50
2018-06-02T08:44:01.137Z,88.20
2018-06-02T08:46:27.380Z,88.70
2018-06-02T08:48:53.629Z,89.20
2018-06-02T08:51:19.853Z,88.90
2018-06-02T08:53:46.122Z,89.10
2018-06-02T08:56:13.297Z,84.90
2018-06-02T08:58:40.280Z,86.00
2018-06-02T09:01:06.568Z,86.00
2018-06-02T09:03:32.842Z,84.90
2018-06-02T09:05:59.053Z,85.70
2018-06-02T09:08:25.367Z,83.50
2018-06-02T09:10:51.953Z,85.60
2018-06-02T09:13:18.262Z,83.30
2018-06-02T09:15:44.474Z,82.30
2018-06-02T09:18:11.461Z,82.20
2018-06-02T09:20:37.864Z,82.10
2018-06-02T09:23:04.214Z,82.90
2018-06-02T09:25:30.469Z,82.60
2018-06-02T09:27:56.781Z,80.30
2018-06-02T09:30:25.954Z,79.10
2018-06-02T09:32:53.233Z,79.10
2018-06-02T09:35:19.885Z,77.10
2018-06-02T09:37:48.344Z,77.50
2018-06-02T09:40:14.577Z,80.70
2018-06-02T09:42:40.800Z,83.60
2018-06-02T09:45:07.803Z,82.70
2018-06-02T09:47:34.078Z,82.50
2018-06-02T09:50:00.330Z,84.40
2018-06-02T09:52:26.537Z,79.70
2018-06-02T09:54:53.594Z,81.80
2018-06-02T09:57:19.821Z,81.80
2018-06-02T09:59:46.066Z,79.30
2018-06-02T10:02:12.277Z,78.70
2018-06-02T10:04:39.288Z,78.70
2018-06-02T10:07:05.565Z,78.70
2018-06-02T10:09:31.830Z,77.20
2018-06-02T10:11:58.044Z,80.00
2018-06-02T10:14:24.279Z,74.80
2018-06-02T10:16:50.498Z,74.90
2018-06-02T10:19:16.893Z,74.60
2018-06-02T10:21:43.144Z,73.80
2018-06-02T10:24:09.398Z,73.90
2018-06-02T10:26:35.601Z,74.60
2018-06-02T10:29:02.585Z,72.70
2018-06-02T10:31:28.806Z,72.70
2018-06-02T10:33:57.634Z,73.20
2018-06-02T10:36:23.878Z,74.10
2018-06-02T10:38:50.122Z,72.90
2018-06-02T10:41:17.242Z,71.60
2018-06-02T10:43:43.796Z,71.60
2018-06-02T10:46:10.066Z,71.80
2018-06-02T10:48:36.290Z,71.90
2018-06-02T10:51:02.657Z,71.40
2018-06-02T10:53:28.890Z,70.50
2018-06-02T10:55:55.117Z,69.80
2018-06-02T10:58:21.367Z,72.80
2018-06-02T11:00:47.710Z,71.10
2018-06-02T11:03:13.934Z,70.20
2018-06-02T11:05:40.309Z,70.00
2018-06-02T11:08:07.277Z,71.10
2018-06-02T11:10:33.505Z,71.20
2018-06-02T11:12:59.761Z,70.10
2018-06-02T11:15:26.009Z,68.80
2018-06-02T11:17:52.226Z,67.60
2018-06-02T11:20:18.470Z,66.60
2018-06-02T11:22:44.669Z,66.20
2018-06-02T11:25:10.926Z,66.10
2018-06-02T11:27:37.158Z,67.90
2018-06-02T11:30:03.746Z,67.40
2018-06-02T11:32:29.980Z,65.10
2018-06-02T11:34:57.939Z,67.70
2018-06-02T11:37:24.889Z,65.60
2018-06-02T11:39:51.868Z,64.00
2018-06-02T11:42:18.086Z,64.00
2018-06-02T11:44:44.336Z,63.50
2018-06-02T11:47:10.827Z,66.20
2018-06-02T11:49:37.798Z,67.10
2018-06-02T11:52:04.073Z,67.00
2018-06-02T11:54:30.329Z,66.90
2018-06-02T11:56:57.317Z,65.10
2018-06-02T11:59:23.529Z,65.00
2018-06-02T12:01:50.501Z,64.00
2018-06-02T12:04:17.532Z,65.50
2018-06-02T12:06:43.865Z,65.50
2018-06-02T12:09:10.106Z,64.10
2018-06-02T12:11:36.349Z,65.80
2018-06-02T12:14:02.567Z,67.10
2018-06-02T12:16:28.805Z,66.00
2018-06-02T12:18:55.092Z,64.00
2018-06-02T12:21:22.090Z,66.40
2018-06-02T12:23:48.318Z,66.40
2018-06-02T12:26:14.550Z,64.60
2018-06-02T12:28:40.769Z,62.90
2018-06-02T12:31:07.052Z,65.00
2018-06-02T12:33:33.546Z,63.90
2018-06-02T12:35:59.829Z,64.30
2018-06-02T12:38:26.065Z,65.30
2018-06-02T12:40:53.150Z,63.80
2018-06-02T12:43:19.413Z,63.80
2018-06-02T12:45:46.642Z,62.30
2018-06-02T12:48:12.941Z,62.00
2018-06-02T12:50:39.916Z,63.30
2018-06-02T12:53:06.154Z,63.30
2018-06-02T12:55:32.393Z,61.70
2018-06-02T12:57:58.645Z,64.10
2018-06-02T13:00:25.030Z,64.30
2018-06-02T13:02:51.994Z,65.00
2018-06-02T13:05:18.223Z,65.00
2018-06-02T13:07:44.611Z,63.80
2018-06-02T13:10:10.825Z,64.60
2018-06-02T13:12:37.128Z,62.70
2018-06-02T13:15:03.378Z,63.20
2018-06-02T13:17:29.906Z,64.50
2018-06-02T13:19:56.134Z,61.20
2018-06-02T13:22:22.751Z,61.80
2018-06-02T13:24:49.921Z,61.30
2018-06-02T13:27:16.280Z,61.30
2018-06-02T13:29:43.369Z,61.40
2018-06-02T13:32:10.384Z,62.50
2018-06-02T13:34:36.623Z,62.40
2018-06-02T13:37:02.925Z,62.50
2018-06-02T13:39:29.294Z,62.10
2018-06-02T13:41:55.529Z,61.10
2018-06-02T13:44:21.758Z,62.50
2018-06-02T13:46:48.005Z,60.70
2018-06-02T13:49:14.977Z,60.40
2018-06-02T13:51:41.219Z,60.30
2018-06-02T13:54:08.630Z,58.70
2018-06-02T13:56:34.891Z,58.90
2018-06-02T13:59:01.846Z,60.70
2018-06-02T14:01:28.235Z,60.70
2018-06-02T14:03:54.466Z,56.10
2018-06-02T14:06:20.699Z,53.30
2018-06-02T14:08:46.956Z,46.40
2018-06-02T14:11:13.192Z,45.80
2018-06-02T14:13:40.170Z,42.00
2018-06-02T14:16:07.331Z,42.80
2018-06-02T14:18:33.607Z,42.80
2018-06-02T14:20:59.794Z,40.20
2018-06-02T14:23:26.045Z,39.90
2018-06-02T14:25:52.274Z,40.80
2018-06-02T14:28:18.515Z,38.00
2018-06-02T14:30:44.725Z,37.10
2018-06-02T14:33:11.088Z,36.60
2018-06-02T14:35:37.322Z,38.30
2018-06-02T14:38:03.619Z,35.00
2018-06-02T14:40:29.842Z,38.30
2018-06-02T14:42:56.092Z,37.20
2018-06-02T14:45:22.312Z,38.80
2018-06-02T14:47:48.733Z,40.40
2018-06-02T14:50:16.457Z,40.00
2018-06-02T14:52:43.586Z,39.20
2018-06-02T14:55:10.691Z,39.20
2018-06-02T14:57:36.957Z,39.20
2018-06-02T15:00:03.216Z,38.50
2018-06-02T15:02:29.445Z,38.90
2018-06-02T15:04:55.687Z,44.40
2018-06-02T15:07:21.941Z,47.50
2018-06-02T15:09:48.403Z,50.70
2018-06-02T15:12:14.638Z,52.40
2018-06-02T15:14:40.902Z,54.20
2018-06-02T15:17:07.145Z,56.50
2018-06-02T15:19:33.525Z,58.90
2018-06-02T15:22:00.561Z,59.60
2018-06-02T15:24:26.841Z,59.80
2018-06-02T15:26:53.062Z,56.00
2018-06-02T15:29:19.315Z,53.40
2018-06-02T15:31:45.552Z,55.00
2018-06-02T15:34:12.532Z,56.30
2018-06-02T15:36:39.631Z,57.50
2018-06-02T15:39:05.878Z,57.50
2018-06-02T15:41:32.982Z,58.90
2018-06-02T15:43:59.233Z,58.80
2018-06-02T15:46:25.454Z,59.30
2018-06-02T15:48:51.718Z,59.40
2018-06-02T15:51:17.930Z,60.30
2018-06-02T15:53:45.006Z,59.40
2018-06-02T15:56:12.065Z,58.90
2018-06-02T15:58:39.046Z,62.30
2018-06-02T16:01:05.308Z,62.30
2018-06-02T16:03:32.097Z,62.00
2018-06-02T16:05:58.269Z,61.50
2018-06-02T16:08:24.734Z,65.60
2018-06-02T16:10:51.269Z,65.00
2018-06-02T16:13:17.501Z,66.40
2018-06-02T16:15:43.722Z,67.90
2018-06-02T16:18:09.962Z,68.80
2018-06-02T16:21:15.561Z,69.10
2018-06-02T16:23:43.118Z,68.80
2018-06-02T16:26:10.641Z,69.50
2018-06-02T16:28:38.205Z,69.50
2018-06-02T16:31:05.759Z,68.20
2018-06-02T16:33:33.319Z,68.50
2018-06-02T16:36:00.874Z,69.20
2018-06-02T16:38:28.465Z,69.50
2018-06-02T16:40:56.017Z,69.60
2018-06-02T16:43:24.379Z,71.00
2018-06-02T16:45:51.894Z,71.00
2018-06-02T16:48:19.835Z,70.40
2018-06-02T16:55:42.370Z,71.40
2018-06-02T16:58:09.958Z,69.90
2018-06-02T17:00:37.505Z,71.10
2018-06-02T17:03:05.094Z,70.20
2018-06-02T17:05:32.657Z,70.80
2018-06-02T17:08:00.219Z,69.70
2018-06-02T17:10:27.831Z,70.80
2018-06-02T17:12:55.428Z,70.20
2018-06-02T17:15:22.978Z,71.20
2018-06-02T17:17:50.582Z,70.40
2018-06-02T17:20:18.231Z,71.60
2018-06-02T17:22:45.990Z,71.00
2018-06-02T17:25:13.527Z,71.90
2018-06-02T17:27:41.054Z,72.30
2018-06-02T17:30:08.600Z,71.40
2018-06-02T17:32:36.181Z,72.70
2018-06-02T17:35:03.792Z,71.80
2018-06-02T17:37:31.289Z,72.10
2018-06-02T17:39:59.834Z,72.30
2018-06-02T17:42:27.445Z,72.20
2018-06-02T17:44:55.055Z,72.90
2018-06-02T17:47:22.609Z,74.00
2018-06-02T17:49:50.238Z,73.70
2018-06-02T17:52:17.757Z,72.70
2018-06-02T17:54:45.361Z,72.90
2018-06-02T17:57:12.906Z,73.30
2018-06-02T17:59:40.658Z,73.70
2018-06-02T18:02:08.201Z,73.00
2018-06-02T18:04:35.835Z,72.70
2018-06-02T18:07:03.558Z,73.10
2018-06-02T18:09:31.094Z,73.30
2018-06-02T18:11:58.617Z,73.10
2018-06-02T18:14:26.157Z,74.10
2018-06-02T18:16:53.802Z,75.40
2018-06-02T18:19:21.394Z,75.50
2018-06-02T18:21:48.949Z,75.40
2018-06-02T18:24:16.458Z,76.40
2018-06-02T18:26:44.016Z,76.60
2018-06-02T18:29:11.584Z,75.80
2018-06-02T18:31:39.173Z,75.30
2018-06-02T18:34:06.734Z,76.40
2018-06-02T18:36:34.337Z,76.50
2018-06-02T18:39:01.910Z,76.60
2018-06-02T18:41:29.495Z,76.40
2018-06-02T18:43:57.167Z,76.20
2018-06-02T18:46:24.734Z,76.20
2018-06-02T18:48:52.285Z,76.60
2018-06-02T18:51:19.882Z,77.20
2018-06-02T18:53:47.421Z,77.70
2018-06-02T18:56:15.022Z,78.00
2018-06-02T18:58:42.583Z,77.80
2018-06-02T19:01:10.334Z,78.60
2018-06-02T19:03:37.885Z,78.70
2018-06-02T19:06:05.449Z,78.70
2018-06-02T19:08:32.964Z,80.70
2018-06-02T19:11:00.497Z,80.00
2018-06-02T19:13:28.082Z,80.40
2018-06-02T19:15:56.827Z,82.00
2018-06-02T19:18:24.375Z,81.00
2018-06-02T19:20:51.934Z,82.80
2018-06-02T19:23:19.450Z,82.60
2018-06-02T19:25:47.030Z,82.10
2018-06-02T19:28:14.541Z,83.20
2018-06-02T19:30:42.090Z,83.70
2018-06-02T19:33:09.678Z,84.30
2018-06-02T19:35:38.090Z,83.80
2018-06-02T19:38:05.610Z,84.20
2018-06-02T19:40:33.129Z,83.50
2018-06-02T19:43:01.862Z,83.50
2018-06-02T19:45:30.129Z,84.50
2018-06-02T19:47:58.177Z,85.50
2018-06-02T19:50:25.722Z,85.20
2018-06-02T19:52:53.298Z,85.10
2018-06-02T19:55:20.904Z,85.60
2018-06-02T20:00:16.097Z,87.30
2018-06-02T20:02:43.650Z,87.10
2018-06-02T20:07:38.677Z,88.20
2018-06-02T20:10:06.210Z,88.70
2018-06-02T20:12:33.754Z,86.90
2018-06-02T20:15:01.258Z,86.80
2018-06-02T20:17:28.785Z,88.20
2018-06-02T20:19:56.305Z,86.40
2018-06-02T20:22:23.838Z,86.20
2018-06-02T20:24:51.371Z,86.60
2018-06-02T20:27:19.318Z,86.80
2018-06-02T20:29:46.878Z,87.80
2018-06-02T20:32:14.430Z,88.90
2018-06-02T20:34:41.965Z,88.00
2018-06-02T20:37:09.489Z,89.80
2018-06-02T20:39:37.080Z,89.60
2018-06-02T20:42:04.681Z,89.40
2018-06-02T20:44:32.250Z,90.00
2018-06-02T20:46:59.935Z,90.40
2018-06-02T20:49:27.494Z,89.00
2018-06-02T20:51:55.049Z,88.70
2018-06-02T20:54:22.602Z,89.40
2018-06-02T20:56:50.265Z,89.40
2018-06-02T20:59:18.283Z,90.20
2018-06-02T21:01:45.854Z,89.70
2018-06-02T21:04:13.419Z,89.70
2018-06-02T21:06:40.976Z,90.20
2018-06-02T21:09:09.069Z,90.10
2018-06-02T21:11:39.983Z,90.40
2018-06-02T21:14:08.614Z,90.60
2018-06-02T21:16:37.069Z,90.60
2018-06-02T21:19:04.642Z,91.10
2018-06-02T21:21:32.195Z,91.30
2018-06-02T21:24:01.672Z,91.40
2018-06-02T21:26:29.554Z,91.20
2018-06-02T21:28:57.102Z,91.30
2018-06-02T21:31:24.748Z,91.60
2018-06-02T21:33:52.389Z,91.30
2018-06-02T21:36:19.985Z,91.00
2018-06-02T21:38:47.615Z,91.50
2018-06-02T21:41:15.754Z,91.50
2018-06-02T21:43:43.342Z,90.90
2018-06-02T21:46:10.927Z,91.00
2018-06-02T21:48:38.478Z,90.80
2018-06-02T21:51:06.057Z,90.60
2018-06-02T21:53:33.647Z,90.40
2018-06-02T21:56:01.211Z,90.40
2018-06-02T21:58:28.771Z,90.50
2018-06-02T22:00:56.380Z,90.30
2018-06-02T22:03:24.056Z,90.50
2018-06-02T22:05:51.777Z,90.00
2018-06-02T22:08:19.622Z,90.10
2018-06-02T22:10:47.241Z,90.10
2018-06-02T22:13:14.920Z,90.00
2018-06-02T22:15:42.528Z,90.30
2018-06-02T22:18:10.078Z,90.30
2018-06-02T22:20:37.659Z,90.20
2018-06-02T22:23:05.344Z,90.60
2018-06-02T22:25:32.900Z,90.70
2018-06-02T22:28:00.469Z,90.80
2018-06-02T22:30:28.002Z,90.60
2018-06-02T22:32:55.698Z,90.90
2018-06-02T22:35:23.227Z,90.80
2018-06-02T22:37:50.954Z,90.60
2018-06-02T22:40:18.569Z,90.50
2018-06-02T22:42:46.161Z,90.70
2018-06-02T22:45:13.694Z,90.70
2018-06-02T22:47:41.233Z,90.70
2018-06-02T22:50:08.785Z,90.70
2018-06-02T22:52:36.742Z,90.80
2018-06-02T22:55:04.366Z,90.80
2018-06-02T22:57:32.050Z,90.80
2018-06-02T22:59:59.694Z,90.40
2018-06-02T23:02:27.249Z,90.70
2018-06-02T23:04:54.942Z,90.90
2018-06-02T23:07:22.651Z,90.70
2018-06-02T23:09:50.219Z,90.90
2018-06-02T23:12:18.234Z,90.90
2018-06-02T23:14:45.866Z,91.10
2018-06-02T23:17:13.418Z,91.40
2018-06-02T23:19:41.253Z,91.30
2018-06-02T23:22:19.014Z,91.40
2018-06-02T23:24:47.925Z,91.40
2018-06-02T23:27:15.450Z,91.80
2018-06-02T23:29:43.034Z,91.90
2018-06-02T23:32:10.590Z,91.90
2018-06-02T23:34:38.182Z,92.10
2018-06-02T23:37:05.890Z,92.20
2018-06-02T23:39:33.437Z,92.30
2018-06-02T23:42:01.006Z,92.00
2018-06-02T23:44:28.630Z,92.10
2018-06-02T23:46:56.163Z,92.30
2018-06-02T23:49:24.011Z,92.30
2018-06-02T23:51:51.997Z,92.40
2018-06-02T23:54:19.645Z,92.20
2018-06-02T23:56:47.207Z,92.10
2018-06-02T23:59:15.134Z,91.80
